Time;durP1;ratioP1;P1;durP2;ratioP2;P2;SDS_P1;SDS_P2;PMS_P1;PMS_P2;Temp;Humidity;BMP_temperature;BMP_pressure;BME280_temperature;BME280_humidity;BME280_pressure;Samples;Min_cycle;Max_cycle;Signal;HPM_P1;HPM_P2
2023/05/24 00:00:41;;;;;;;;;4.00;3.67;;;;;13.40;54.08;101999.00;5097670;27;45366;-41
2023/05/24 00:03:06;;;;;;;;;2.00;2.00;;;;;13.40;54.04;101996.34;5098033;27;45580;-40
2023/05/24 00:05:36;;;;;;;;;7.67;2.33;;;;;13.38;53.87;102002.78;5095811;27;47734;-41
2023/05/24 00:08:02;;;;;;;;;5.67;3.33;;;;;13.37;53.73;101995.75;5097544;27;45275;-38
2023/05/24 00:10:27;;;;;;;;;4.67;3.33;;;;;13.35;54.33;101992.34;5097069;27;45303;-49
2023/05/24 00:12:52;;;;;;;;;7.67;3.33;;;;;13.33;54.24;101999.69;5097636;27;45399;-48
2023/05/24 00:15:18;;;;;;;;;3.00;2.00;;;;;13.29;54.01;101998.25;5097046;27;46172;-38
2023/05/24 00:17:43;;;;;;;;;3.00;3.00;;;;;13.24;54.55;101982.63;5097265;27;45457;-52
2023/05/24 00:20:12;;;;;;;;;4.00;2.67;;;;;12.90;54.50;101941.94;5097314;27;45362;-38
2023/05/24 00:22:39;;;;;;;;;10.33;6.00;;;;;13.25;54.69;101995.00;5097660;27;45320;-40
2023/05/24 00:25:05;;;;;;;;;1.00;1.00;;;;;13.22;53.83;101988.09;5096879;27;46188;-49
2023/05/24 00:27:31;;;;;;;;;6.67;6.67;;;;;13.19;54.75;101985.66;5096743;27;45410;-39
2023/05/24 00:29:57;;;;;;;;;9.67;3.00;;;;;13.15;54.21;101976.22;5096997;27;45504;-47
2023/05/24 00:32:22;;;;;;;;;8.00;4.00;;;;;13.14;54.59;101984.34;5097279;27;45386;-52
2023/05/24 00:34:47;;;;;;;;;5.00;4.00;;;;;13.10;54.82;101967.75;5097049;27;46039;-53
2023/05/24 00:37:13;;;;;;;;;4.33;1.33;;;;;13.09;54.48;101974.06;5097010;27;45248;-45
2023/05/24 00:39:39;;;;;;;;;4.00;4.00;;;;;13.07;54.71;101967.19;5097258;27;45433;-39
2023/05/24 00:42:04;;;;;;;;;4.00;2.00;;;;;12.89;55.24;101943.75;5097398;27;45402;-40
2023/05/24 00:44:30;;;;;;;;;5.67;4.00;;;;;13.01;54.92;101973.88;5096628;27;47212;-53
2023/05/24 00:46:56;;;;;;;;;6.33;4.00;;;;;12.96;54.92;101962.75;5096783;27;45444;-42
2023/05/24 00:49:22;;;;;;;;;4.33;3.00;;;;;12.92;55.63;101959.50;5096764;27;45421;-46
2023/05/24 00:51:49;;;;;;;;;4.67;3.00;;;;;12.88;55.01;101960.75;5097033;27;45435;-39
2023/05/24 00:54:14;;;;;;;;;5.67;3.67;;;;;12.83;55.07;101960.28;5096465;27;46228;-38
2023/05/24 00:56:41;;;;;;;;;3.67;3.67;;;;;12.80;55.53;101959.72;5096703;27;45734;-40
2023/05/24 00:59:07;;;;;;;;;6.00;3.00;;;;;12.77;55.78;101950.16;5096984;27;45270;-49
2023/05/24 01:01:33;;;;;;;;;6.67;3.00;;;;;12.75;55.79;101949.44;5096320;27;45461;-38
2023/05/24 01:03:58;;;;;;;;;2.00;2.00;;;;;12.71;55.89;101951.50;5096221;27;45820;-39
2023/05/24 01:06:25;;;;;;;;;9.00;6.00;;;;;12.70;55.95;101949.81;5096390;27;45460;-42
2023/05/24 01:09:10;;;;;;;;;3.67;3.67;;;;;12.66;55.77;101953.72;5096634;27;45375;-39
2023/05/24 01:11:49;;;;;;;;;5.67;3.67;;;;;12.63;55.91;101953.97;5096527;27;45303;-42
2023/05/24 01:14:15;;;;;;;;;8.67;5.33;;;;;12.62;56.79;101952.28;5096243;27;46350;-50
2023/05/24 01:17:03;;;;;;;;;6.00;2.00;;;;;12.60;56.19;101954.28;5095926;27;45498;-43
2023/05/24 01:19:56;;;;;;;;;6.00;3.00;;;;;12.58;56.71;101955.34;5096334;27;45343;-40
2023/05/24 01:22:21;;;;;;;;;7.00;6.00;;;;;12.55;56.75;101960.94;5095459;27;45462;-48
2023/05/24 01:25:05;;;;;;;;;3.00;3.00;;;;;12.53;56.67;101960.25;5096021;27;45371;-56
2023/05/24 01:27:33;;;;;;;;;6.33;3.00;;;;;12.53;56.16;101960.25;5096134;27;45425;-53
2023/05/24 01:30:00;;;;;;;;;2.33;2.33;;;;;12.47;56.50;101951.78;5096348;27;45353;-46
2023/05/24 01:32:26;;;;;;;;;8.00;4.00;;;;;12.44;57.00;101954.72;5096454;27;45339;-39
2023/05/24 01:34:54;;;;;;;;;6.00;3.67;;;;;12.44;57.15;101956.53;5095904;27;45833;-39
2023/05/24 01:37:20;;;;;;;;;7.00;7.00;;;;;12.44;57.40;101961.88;5096067;27;45498;-40
2023/05/24 01:39:46;;;;;;;;;3.00;3.00;;;;;12.35;56.97;101949.31;5095857;27;45379;-41
2023/05/24 01:42:14;;;;;;;;;7.00;4.67;;;;;12.40;57.66;101960.44;5096227;27;45365;-42
2023/05/24 01:45:09;;;;;;;;;3.00;3.00;;;;;12.38;57.75;101970.38;5095822;27;46174;-57
2023/05/24 01:47:59;;;;;;;;;7.00;5.67;;;;;12.34;57.46;101968.94;5093594;27;45273;-54
2023/05/24 01:50:30;;;;;;;;;4.00;2.00;;;;;12.32;57.78;101970.91;5093539;27;45423;-46
2023/05/24 01:53:01;;;;;;;;;5.33;3.67;;;;;12.28;57.86;101966.78;5093854;27;45480;-51
2023/05/24 01:55:28;;;;;;;;;7.00;3.00;;;;;12.25;57.81;101970.56;5093318;27;46060;-43
2023/05/24 01:57:59;;;;;;;;;7.67;4.00;;;;;12.23;57.63;101964.50;5093571;27;45442;-57
2023/05/24 02:00:25;;;;;;;;;6.00;5.00;;;;;12.19;57.53;101958.59;5093346;27;45339;-45
2023/05/24 02:02:51;;;;;;;;;6.67;3.67;;;;;12.18;57.40;101966.72;5093673;27;45396;-44
2023/05/24 02:05:16;;;;;;;;;7.00;6.00;;;;;12.17;58.01;101983.69;5093187;27;46058;-56
2023/05/24 02:07:41;;;;;;;;;9.67;7.00;;;;;12.16;58.17;101961.50;5093391;27;45661;-49
2023/05/24 02:10:07;;;;;;;;;4.33;4.33;;;;;12.17;58.62;101957.00;5093918;27;45414;-48
2023/05/24 02:12:32;;;;;;;;;10.67;5.00;;;;;12.16;58.38;101969.50;5093297;27;45357;-56
2023/05/24 02:14:59;;;;;;;;;7.67;5.67;;;;;12.13;57.40;101964.41;5093279;27;46240;-42
2023/05/24 02:17:25;;;;;;;;;7.67;3.67;;;;;12.11;57.81;101970.88;5092255;27;45554;-47
2023/05/24 02:19:51;;;;;;;;;7.67;4.67;;;;;12.08;58.23;101961.28;5076017;27;45429;-39
2023/05/24 02:22:16;;;;;;;;;5.33;3.33;;;;;12.07;58.11;101956.94;5093388;27;45467;-42
2023/05/24 02:24:42;;;;;;;;;6.00;5.00;;;;;12.05;58.21;101956.22;5094238;27;45447;-37
2023/05/24 02:27:07;;;;;;;;;8.67;3.67;;;;;12.02;58.58;101956.47;5095417;27;45381;-40
2023/05/24 02:29:33;;;;;;;;;10.33;6.00;;;;;12.00;58.41;101955.72;5095297;27;45450;-39
2023/05/24 02:31:58;;;;;;;;;3.00;3.00;;;;;11.97;58.35;101961.34;5095383;27;45413;-48
2023/05/24 02:34:24;;;;;;;;;5.67;5.00;;;;;11.89;58.39;101950.44;5097057;27;47307;-52
2023/05/24 02:36:50;;;;;;;;;6.00;4.00;;;;;11.92;58.69;101960.84;5099037;27;45385;-45
2023/05/24 02:39:16;;;;;;;;;3.67;2.00;;;;;11.86;59.24;101948.88;5098666;27;45596;-40
2023/05/24 02:41:41;;;;;;;;;6.67;5.00;;;;;11.87;59.09;101957.72;5100226;27;45318;-41
2023/05/24 02:44:07;;;;;;;;;2.33;2.33;;;;;11.81;59.21;101951.03;5102572;27;45604;-42
2023/05/24 02:46:32;;;;;;;;;5.67;5.67;;;;;11.79;59.28;101952.13;5102100;27;45311;-60
2023/05/24 02:48:58;;;;;;;;;8.00;6.67;;;;;11.72;59.57;101941.13;5098409;27;45429;-39
2023/05/24 02:51:23;;;;;;;;;11.00;6.00;;;;;11.72;59.24;101951.78;5099327;27;45465;-51
2023/05/24 02:53:49;;;;;;;;;3.00;2.67;;;;;11.65;59.64;101950.59;5098362;27;45336;-50
2023/05/24 02:56:16;;;;;;;;;6.67;6.67;;;;;11.65;59.92;101940.78;5097159;27;45334;-43
2023/05/24 02:58:41;;;;;;;;;10.00;6.00;;;;;11.64;59.78;101949.75;5098580;27;45383;-52
2023/05/24 03:01:07;;;;;;;;;3.33;0.33;;;;;11.61;59.22;101955.31;5098595;27;45494;-54
2023/05/24 03:03:32;;;;;;;;;7.00;5.00;;;;;11.61;59.13;101944.66;5098408;27;46147;-59
2023/05/24 03:05:58;;;;;;;;;8.00;5.00;;;;;11.61;60.27;101934.00;5098098;27;45438;-56
2023/05/24 03:08:23;;;;;;;;;5.67;1.00;;;;;11.54;60.20;101924.78;5098389;27;45382;-50
2023/05/24 03:10:49;;;;;;;;;6.67;3.67;;;;;11.55;60.06;101939.00;5099019;27;45332;-43
2023/05/24 03:13:14;;;;;;;;;7.00;6.00;;;;;11.39;60.15;101918.91;5097848;27;46693;-41
2023/05/24 03:15:39;;;;;;;;;5.00;5.00;;;;;11.52;60.35;101936.56;5098169;27;45477;-52
2023/05/24 03:18:05;;;;;;;;;6.00;5.00;;;;;11.52;60.46;101931.22;5098198;27;45473;-41
2023/05/24 03:20:32;;;;;;;;;5.67;3.00;;;;;11.46;60.49;101930.78;5098636;27;45500;-39
2023/05/24 03:23:00;;;;;;;;;6.67;3.00;;;;;11.52;60.64;101940.06;5098070;27;47446;-39
2023/05/24 03:25:26;;;;;;;;;6.33;6.33;;;;;11.49;60.35;101935.81;5097965;27;45319;-43
2023/05/24 03:27:54;;;;;;;;;10.67;6.00;;;;;11.49;60.73;101935.81;5098127;27;45512;-56
2023/05/24 03:30:21;;;;;;;;;8.33;6.00;;;;;11.52;60.84;101945.41;5098139;27;45306;-48
2023/05/24 03:32:47;;;;;;;;;7.00;5.00;;;;;11.52;60.63;101947.22;5097729;27;45501;-42
2023/05/24 03:35:12;;;;;;;;;11.00;4.33;;;;;11.52;60.71;101944.56;5097947;27;45396;-57
2023/05/24 03:37:38;;;;;;;;;6.00;3.00;;;;;11.49;61.19;101949.16;5098236;27;45281;-43
2023/05/24 03:40:06;;;;;;;;;11.33;5.33;;;;;11.49;60.61;101941.16;5098244;27;45366;-41
2023/05/24 03:42:31;;;;;;;;;5.00;5.00;;;;;11.50;59.82;101947.31;5097748;27;45489;-53
2023/05/24 03:44:59;;;;;;;;;7.00;5.67;;;;;11.34;60.91;101917.59;5097426;27;45420;-45
2023/05/24 03:47:25;;;;;;;;;9.33;4.33;;;;;11.47;60.29;101952.94;5097446;27;45284;-40
2023/05/24 03:49:50;;;;;;;;;12.00;6.33;;;;;11.47;60.65;101945.78;5098099;27;45301;-40
2023/05/24 03:52:15;;;;;;;;;9.00;4.33;;;;;11.43;61.06;101939.00;5097852;27;46187;-41
2023/05/24 03:54:41;;;;;;;;;7.00;3.00;;;;;11.49;60.84;101945.63;5097550;27;45273;-44
2023/05/24 03:57:06;;;;;;;;;7.00;5.00;;;;;11.50;60.88;101955.31;5097968;27;45665;-51
2023/05/24 03:59:32;;;;;;;;;8.67;7.00;;;;;11.50;60.95;101950.00;5098326;27;45465;-47
2023/05/24 04:01:57;;;;;;;;;11.00;3.67;;;;;11.51;60.92;101962.38;5098036;27;45319;-42
2023/05/24 04:04:22;;;;;;;;;10.00;3.33;;;;;11.49;60.76;101959.81;5097830;27;45474;-40
2023/05/24 04:06:48;;;;;;;;;6.33;5.00;;;;;11.51;60.89;101964.19;5097596;27;45852;-39
2023/05/24 04:09:14;;;;;;;;;7.67;7.00;;;;;11.53;60.96;101959.56;5097523;27;45586;-41
2023/05/24 04:11:40;;;;;;;;;7.33;7.33;;;;;11.56;60.96;101962.84;5097008;27;46936;-40
2023/05/24 04:14:06;;;;;;;;;10.00;6.00;;;;;11.57;60.76;101969.84;5096021;27;45414;-40
2023/05/24 04:16:33;;;;;;;;;7.67;5.00;;;;;11.58;61.08;101965.38;5097158;27;45397;-40
2023/05/24 04:19:04;;;;;;;;;7.33;4.33;;;;;11.58;60.93;101965.38;5097269;27;45330;-39
2023/05/24 04:21:33;;;;;;;;;3.00;3.00;;;;;11.60;60.80;101964.28;5096981;27;45321;-46
2023/05/24 04:24:00;;;;;;;;;10.33;6.00;;;;;11.65;60.56;101979.91;5097020;27;45372;-47
2023/05/24 04:26:26;;;;;;;;;11.00;7.00;;;;;11.62;60.83;101967.66;5097441;27;45458;-46
2023/05/24 04:28:52;;;;;;;;;5.00;5.00;;;;;11.68;60.14;101969.00;5097359;27;45402;-40
2023/05/24 04:31:19;;;;;;;;;9.67;6.33;;;;;11.68;59.98;101977.00;5097127;27;46274;-40
2023/05/24 04:33:44;;;;;;;;;6.00;6.00;;;;;11.70;60.28;101980.38;5096899;27;45329;-49
2023/05/24 04:36:10;;;;;;;;;6.33;6.00;;;;;11.60;60.30;101958.97;5096990;27;45749;-41
2023/05/24 04:38:37;;;;;;;;;4.33;3.00;;;;;11.73;60.46;101988.13;5097525;27;45337;-48
2023/05/24 04:41:04;;;;;;;;;6.00;3.00;;;;;11.65;60.06;101966.59;5096691;27;46989;-41
2023/05/24 04:43:30;;;;;;;;;6.33;3.00;;;;;11.81;60.25;102001.69;5096798;27;45358;-52
2023/05/24 04:45:56;;;;;;;;;7.67;5.33;;;;;11.84;59.95;102001.50;5096918;27;45370;-39
2023/05/24 04:48:25;;;;;;;;;5.00;5.00;;;;;11.88;60.05;102002.06;5096856;27;45488;-42
2023/05/24 04:50:51;;;;;;;;;5.00;3.00;;;;;11.92;59.95;101996.34;5096870;27;45374;-43
2023/05/24 04:53:16;;;;;;;;;5.00;4.33;;;;;11.95;59.64;101990.78;5096588;27;45444;-39
2023/05/24 04:55:42;;;;;;;;;7.00;6.33;;;;;11.98;59.69;101995.88;5096689;27;45398;-40
2023/05/24 04:58:07;;;;;;;;;11.00;6.33;;;;;11.93;59.07;101987.41;5095896;27;45378;-47
2023/05/24 05:00:32;;;;;;;;;5.00;3.00;;;;;12.01;59.07;101999.25;5096449;27;45462;-57
2023/05/24 05:02:58;;;;;;;;;7.67;4.33;;;;;12.06;59.05;101995.25;5096329;27;45482;-55
2023/05/24 05:05:23;;;;;;;;;6.33;3.00;;;;;12.05;59.26;101992.69;5096800;27;45362;-50
2023/05/24 05:07:48;;;;;;;;;6.00;2.67;;;;;12.14;58.97;102005.28;5096673;27;45280;-45
2023/05/24 05:10:14;;;;;;;;;9.33;5.33;;;;;12.17;58.95;102000.53;5096401;27;46176;-59
2023/05/24 05:12:39;;;;;;;;;6.00;5.33;;;;;12.23;58.89;102004.53;5096365;27;45317;-55
2023/05/24 05:15:05;;;;;;;;;7.00;3.33;;;;;12.27;58.69;101999.78;5096628;27;45422;-52
2023/05/24 05:17:31;;;;;;;;;12.33;7.00;;;;;12.27;58.47;101997.97;5096606;27;45363;-40
2023/05/24 05:19:56;;;;;;;;;7.33;3.33;;;;;12.28;58.38;102002.31;5096187;27;45368;-39
2023/05/24 05:22:21;;;;;;;;;11.67;6.33;;;;;12.32;58.48;101997.59;5096232;27;45334;-44
2023/05/24 05:24:47;;;;;;;;;7.00;5.33;;;;;12.29;58.12;101990.66;5096198;27;46992;-59
2023/05/24 05:27:12;;;;;;;;;11.00;7.00;;;;;12.24;58.40;101977.72;5096482;27;45387;-51
2023/05/24 05:29:37;;;;;;;;;5.33;4.00;;;;;12.35;58.38;101992.00;5094948;27;46390;-50
2023/05/24 05:32:04;;;;;;;;;6.00;3.00;;;;;12.33;57.71;101981.44;5094911;27;45469;-59
2023/05/24 05:34:29;;;;;;;;;3.00;3.00;;;;;12.46;57.71;102000.78;5096356;27;45212;-55
2023/05/24 05:36:55;;;;;;;;;6.00;5.67;;;;;12.48;58.09;102001.50;5090901;27;45405;-42
2023/05/24 05:39:20;;;;;;;;;6.67;6.00;;;;;12.45;57.53;101988.41;5075581;27;45398;-39
2023/05/24 05:41:46;;;;;;;;;9.00;5.67;;;;;12.53;57.69;101995.78;5075428;27;45405;-38
2023/05/24 05:44:11;;;;;;;;;9.67;5.33;;;;;12.56;57.44;101998.22;5075646;27;45402;-46
2023/05/24 05:46:37;;;;;;;;;8.00;4.00;;;;;12.58;57.60;102001.59;5076038;27;45617;-45
2023/05/24 05:49:03;;;;;;;;;5.33;3.00;;;;;12.64;57.32;101997.53;5075484;27;45515;-48
2023/05/24 05:51:29;;;;;;;;;7.33;5.33;;;;;12.67;57.62;102000.81;5075332;27;45428;-40
2023/05/24 05:53:54;;;;;;;;;9.33;5.67;;;;;12.64;57.67;101994.88;5076221;27;45464;-39
2023/05/24 05:56:20;;;;;;;;;9.33;7.00;;;;;12.67;57.16;101999.97;5076149;27;45321;-40
2023/05/24 05:58:45;;;;;;;;;5.33;5.33;;;;;12.68;57.20;101999.84;5075196;27;45997;-38
2023/05/24 06:01:11;;;;;;;;;13.00;6.00;;;;;12.74;57.84;102007.31;5076039;27;45384;-50
2023/05/24 06:03:36;;;;;;;;;6.33;5.00;;;;;12.79;57.87;102011.44;5075521;27;45506;-44
2023/05/24 06:06:01;;;;;;;;;12.67;5.33;;;;;12.84;57.24;102006.53;5076279;27;45415;-54
2023/05/24 06:08:29;;;;;;;;;4.00;4.00;;;;;12.92;57.48;102002.22;5075202;28;48864;-40
2023/05/24 06:10:55;;;;;;;;;8.33;7.33;;;;;12.97;57.41;102007.19;5078683;27;45348;-40
2023/05/24 06:13:20;;;;;;;;;14.00;8.00;;;;;13.07;56.80;102004.59;5078860;27;45381;-41
2023/05/24 06:15:46;;;;;;;;;7.33;4.00;;;;;13.17;57.13;102009.00;5078830;27;45519;-39
2023/05/24 06:18:12;;;;;;;;;7.67;7.00;;;;;13.26;56.81;102010.03;5078256;27;46216;-47
2023/05/24 06:20:37;;;;;;;;;9.00;6.00;;;;;13.32;56.32;102016.69;5079312;27;45437;-47
2023/05/24 06:23:03;;;;;;;;;7.33;4.67;;;;;13.32;56.18;101998.84;5078909;27;45824;-40
2023/05/24 06:25:29;;;;;;;;;10.00;7.00;;;;;13.37;56.11;102001.09;5078925;27;45477;-39
2023/05/24 06:27:55;;;;;;;;;9.67;7.33;;;;;13.55;56.09;102028.03;5078824;27;47429;-40
2023/05/24 06:30:20;;;;;;;;;7.00;7.00;;;;;13.63;55.71;102025.53;5078607;27;45400;-48
2023/05/24 06:32:46;;;;;;;;;9.00;6.00;;;;;13.70;55.42;102022.19;5078871;27;45426;-41
2023/05/24 06:35:11;;;;;;;;;6.67;6.67;;;;;13.80;55.29;102035.59;5079120;28;45351;-43
2023/05/24 06:37:37;;;;;;;;;9.00;7.00;;;;;13.91;55.16;102022.13;5078623;27;45560;-51
2023/05/24 06:40:05;;;;;;;;;20.67;13.00;;;;;14.09;54.72;102021.44;5078523;27;45410;-46
2023/05/24 06:42:30;;;;;;;;;11.00;9.00;;;;;14.25;54.47;102015.56;5078456;27;45456;-60
2023/05/24 06:44:56;;;;;;;;;13.00;12.00;;;;;14.54;54.24;102028.94;5078451;27;45429;-42
2023/05/24 06:47:21;;;;;;;;;11.33;9.33;;;;;14.88;53.14;102032.91;5077887;27;54778;-40
2023/05/24 06:49:47;;;;;;;;;7.00;7.00;;;;;16.10;51.28;102014.91;5093927;27;45463;-40
2023/05/24 06:52:13;;;;;;;;;11.00;6.33;;;;;17.04;48.74;102014.41;5078500;27;45362;-40
2023/05/24 06:54:38;;;;;;;;;7.00;5.00;;;;;18.23;46.73;102016.25;5078520;27;45680;-39
2023/05/24 06:57:04;;;;;;;;;49.00;36.00;;;;;19.23;44.48;102011.53;5078034;27;46070;-45
2023/05/24 06:59:29;;;;;;;;;18.00;11.33;;;;;20.13;42.72;102007.41;5078231;27;45444;-41
2023/05/24 07:01:56;;;;;;;;;6.67;5.00;;;;;20.78;41.88;102007.97;5078054;27;45431;-44
2023/05/24 07:04:24;;;;;;;;;8.33;5.00;;;;;21.70;39.54;102007.63;5078333;27;45487;-39
2023/05/24 07:06:50;;;;;;;;;5.33;4.00;;;;;22.60;40.36;102008.00;5077732;27;46372;-39
2023/05/24 07:09:17;;;;;;;;;8.00;7.00;;;;;23.29;36.57;102001.84;5077836;27;45203;-45
2023/05/24 07:11:42;;;;;;;;;10.50;5.00;;;;;23.78;35.35;102010.88;5077654;27;45531;-43
2023/05/24 07:14:07;;;;;;;;;6.00;5.00;;;;;24.24;35.54;102010.19;5078311;27;45486;-58
2023/05/24 07:16:33;;;;;;;;;7.50;6.25;;;;;24.66;36.94;102008.16;5077852;27;45310;-49
2023/05/24 07:18:58;;;;;;;;;8.25;6.50;;;;;25.04;34.04;102009.16;5077782;27;45402;-41
2023/05/24 07:21:23;;;;;;;;;5.50;5.50;;;;;25.50;33.09;102010.97;5077020;27;45294;-41
2023/05/24 07:23:50;;;;;;;;;52.00;36.33;;;;;26.19;31.86;102001.19;5077936;27;45364;-42
2023/05/24 07:26:16;;;;;;;;;68.33;51.33;;;;;26.79;30.87;102003.47;5077541;27;47201;-42
2023/05/24 07:28:41;;;;;;;;;8.75;6.25;;;;;27.45;30.76;102004.72;5077579;27;45494;-44
2023/05/24 07:31:08;;;;;;;;;8.00;6.00;;;;;28.07;29.36;101999.94;5078121;28;45394;-44
2023/05/24 07:33:38;;;;;;;;;11.00;6.50;;;;;28.51;28.71;101995.88;5077824;27;45462;-47
2023/05/24 07:36:05;;;;;;;;;5.80;5.80;;;;;29.07;27.91;102002.72;5077438;27;46251;-45
2023/05/24 07:38:30;;;;;;;;;9.20;5.60;;;;;29.56;26.12;102003.25;5077323;27;45223;-42
2023/05/24 07:40:59;;;;;;;;;26.50;18.00;;;;;29.78;27.35;101997.09;5077643;27;45312;-47
2023/05/24 07:43:25;;;;;;;;;10.60;8.60;;;;;30.29;25.77;101996.13;5077811;27;45469;-45
2023/05/24 07:45:51;;;;;;;;;6.80;4.00;;;;;30.94;25.37;101999.41;5077266;27;46174;-44
2023/05/24 07:48:17;;;;;;;;;7.50;3.50;;;;;31.12;28.23;102001.00;5077797;27;45335;-50
2023/05/24 07:50:47;;;;;;;;;7.00;5.20;;;;;31.46;25.42;102010.84;5077557;28;45438;-50
2023/05/24 07:53:15;;;;;;;;;10.00;7.00;;;;;31.68;27.00;102012.75;5077699;27;45363;-48
2023/05/24 07:55:41;;;;;;;;;7.20;4.60;;;;;31.94;23.98;102000.13;5077513;28;45296;-51
2023/05/24 07:58:06;;;;;;;;;5.50;4.75;;;;;32.56;22.46;102012.56;5077180;27;45301;-50
2023/05/24 08:00:32;;;;;;;;;5.75;5.00;;;;;33.15;22.50;102012.41;5077395;27;45567;-52
2023/05/24 08:02:58;;;;;;;;;4.00;3.75;;;;;33.55;22.04;102011.00;5077608;27;45311;-41
2023/05/24 08:05:24;;;;;;;;;6.75;4.75;;;;;33.79;21.31;102014.91;5076856;27;45429;-59
2023/05/24 08:07:49;;;;;;;;;4.50;4.50;;;;;34.19;21.90;102007.84;5077033;27;45408;-44
2023/05/24 08:10:15;;;;;;;;;5.00;5.00;;;;;34.45;21.59;102006.72;5076858;27;45434;-54
2023/05/24 08:12:41;;;;;;;;;5.75;4.75;;;;;34.87;20.78;102013.06;5077437;27;45823;-58
2023/05/24 08:15:07;;;;;;;;;3.50;3.50;;;;;35.07;23.18;102017.75;5076753;27;46091;-47
2023/05/24 08:17:32;;;;;;;;;7.80;4.00;;;;;35.17;20.14;102006.66;5076996;27;45327;-47
2023/05/24 08:19:58;;;;;;;;;9.25;3.25;;;;;35.72;19.38;102010.28;5077120;27;45296;-42
2023/05/24 08:22:23;;;;;;;;;8.00;4.25;;;;;36.41;19.71;102000.16;5077220;27;45323;-43
2023/05/24 08:24:48;;;;;;;;;4.00;4.00;;;;;36.97;21.79;102006.00;5077018;27;45323;-59
2023/05/24 08:27:14;;;;;;;;;3.75;3.75;;;;;37.13;18.46;102011.38;5076839;27;45267;-57
2023/05/24 08:29:39;;;;;;;;;5.25;3.00;;;;;37.33;19.50;102015.81;5077929;27;45315;-57
2023/05/24 08:32:08;;;;;;;;;8.50;4.50;;;;;37.21;18.19;102019.06;5077211;27;45375;-59
2023/05/24 08:34:37;;;;;;;;;3.80;3.40;;;;;37.24;18.35;102014.84;5076969;27;47077;-55
2023/05/24 08:37:03;;;;;;;;;3.20;3.20;;;;;37.43;17.17;102010.19;5076708;28;45459;-59
2023/05/24 08:39:29;;;;;;;;;3.60;3.00;;;;;37.81;16.89;102004.66;5076687;27;45387;-60
2023/05/24 08:41:55;;;;;;;;;5.00;3.00;;;;;37.97;16.66;102005.25;5076982;27;45502;-59
2023/05/24 08:44:22;;;;;;;;;3.00;3.00;;;;;38.10;18.32;102007.31;5076505;27;46110;-59
2023/05/24 08:46:47;;;;;;;;;4.20;2.40;;;;;38.25;15.63;102012.59;5076826;28;45482;-46
2023/05/24 08:49:14;;;;;;;;;4.75;3.25;;;;;38.46;17.01;102009.50;5076956;27;45397;-60
2023/05/24 08:51:40;;;;;;;;;3.40;2.00;;;;;38.65;16.78;102010.28;5077080;27;45538;-68
2023/05/24 08:54:06;;;;;;;;;3.75;2.75;;;;;38.83;17.15;102009.38;5076387;27;46165;-69
2023/05/24 08:56:33;;;;;;;;;0.60;0.60;;;;;39.07;14.96;102011.16;5076088;27;45357;-60
2023/05/24 08:58:58;;;;;;;;;4.60;0.60;;;;;39.37;14.82;102002.19;5076550;27;45676;-64
2023/05/24 09:01:25;;;;;;;;;3.00;3.00;;;;;39.67;15.02;101994.31;5076813;27;45446;-69
2023/05/24 09:03:52;;;;;;;;;3.00;3.00;;;;;40.02;14.00;102000.97;5076049;27;47130;-57
2023/05/24 09:06:18;;;;;;;;;1.80;1.80;;;;;40.15;16.88;102002.91;5075803;27;45412;-58
2023/05/24 09:08:44;;;;;;;;;4.50;3.00;;;;;40.35;14.40;101995.19;5076025;27;45338;-57
2023/05/24 09:11:10;;;;;;;;;3.20;1.40;;;;;40.50;15.23;102002.34;5076244;27;45340;-52
2023/05/24 09:13:36;;;;;;;;;1.80;1.80;;;;;40.70;12.49;102000.97;5075965;27;46329;-56
2023/05/24 09:16:02;;;;;;;;;2.00;2.00;;;;;40.96;12.57;101992.69;5076388;27;45259;-56
2023/05/24 09:18:28;;;;;;;;;3.00;1.25;;;;;41.20;13.12;101998.72;5076317;27;45846;-50
2023/05/24 09:20:53;;;;;;;;;0.80;0.80;;;;;41.32;14.28;101998.91;5076301;27;45317;-47
2023/05/24 09:23:18;;;;;;;;;2.00;2.00;;;;;41.45;13.45;101994.34;5076182;27;45437;-56
2023/05/24 09:25:45;;;;;;;;;2.50;1.75;;;;;41.38;13.49;101989.28;5075818;27;45364;-51
2023/05/24 09:28:16;;;;;;;;;3.00;3.00;;;;;41.25;14.18;101992.16;5076266;27;45376;-40
2023/05/24 09:30:57;;;;;;;;;2.40;2.40;;;;;41.37;13.25;101987.56;5076359;28;45424;-44
2023/05/24 09:33:22;;;;;;;;;2.40;2.40;;;;;41.63;14.72;101984.84;5075659;27;46432;-61
2023/05/24 09:35:48;;;;;;;;;3.50;1.00;;;;;41.56;13.60;101983.69;5075792;27;45315;-41
2023/05/24 09:38:17;;;;;;;;;4.00;3.00;;;;;41.67;13.07;101982.19;5075816;27;45429;-68
2023/05/24 09:40:43;;;;;;;;;5.60;2.20;;;;;41.67;15.20;101990.56;5075848;28;45360;-41
2023/05/24 09:43:09;;;;;;;;;1.00;1.00;;;;;41.45;12.05;101980.38;5075862;27;46232;-63
2023/05/24 09:45:47;;;;;;;;;4.00;1.80;;;;;41.57;13.46;101977.75;5079134;27;45321;-59
2023/05/24 09:48:16;;;;;;;;;1.40;1.40;;;;;41.56;12.22;101980.91;5079759;27;45455;-69
2023/05/24 09:50:44;;;;;;;;;2.00;1.80;;;;;41.63;13.13;101978.41;5079610;27;45516;-62
2023/05/24 09:53:10;;;;;;;;;0.80;0.80;;;;;41.43;12.93;101979.91;5079643;27;46077;-72
2023/05/24 09:55:36;;;;;;;;;1.25;1.25;;;;;41.27;12.23;101971.13;5079473;27;45518;-50
2023/05/24 09:58:04;;;;;;;;;1.80;1.80;;;;;41.50;11.78;101973.81;5079875;27;45250;-74
2023/05/24 10:00:38;;;;;;;;;4.00;0.80;;;;;41.54;11.87;101984.00;5079936;27;45358;-60
2023/05/24 10:03:07;;;;;;;;;3.60;2.40;;;;;41.49;11.39;101972.19;5079663;27;47154;-70
2023/05/24 10:05:34;;;;;;;;;2.40;2.40;;;;;41.58;11.97;101981.38;5079751;27;45359;-72
2023/05/24 10:08:01;;;;;;;;;1.80;1.80;;;;;41.87;11.80;101966.78;5079494;27;45439;-45
2023/05/24 10:10:30;;;;;;;;;1.60;1.60;;;;;42.02;12.35;101973.84;5079477;27;45277;-49
2023/05/24 10:12:57;;;;;;;;;4.20;2.00;;;;;42.26;11.70;101964.91;5094858;27;45609;-41
2023/05/24 10:15:25;;;;;;;;;2.00;2.00;;;;;42.38;10.63;101956.66;5078960;27;45328;-61
2023/05/24 10:17:52;;;;;;;;;3.60;2.40;;;;;42.32;12.47;101963.59;5079163;27;45391;-41
2023/05/24 10:20:18;;;;;;;;;3.60;1.40;;;;;42.23;13.04;101963.63;5079481;27;45434;-68
2023/05/24 10:22:45;;;;;;;;;2.00;2.00;;;;;41.99;11.06;101966.13;5079554;27;45327;-39
2023/05/24 10:25:19;;;;;;;;;2.40;0.80;;;;;41.73;12.07;101972.53;5079659;27;45462;-42
2023/05/24 10:27:45;;;;;;;;;3.60;2.00;;;;;41.58;11.51;101971.03;5079705;27;45428;-42
2023/05/24 10:30:36;;;;;;;;;3.00;3.00;;;;;41.24;12.34;101969.00;5079107;28;45402;-38
2023/05/24 10:33:04;;;;;;;;;1.00;1.00;;;;;40.89;12.48;101968.88;5074981;28;46769;-77
2023/05/24 10:35:32;;;;;;;;;2.40;2.40;;;;;40.69;12.67;101963.88;5077623;28;45981;-76
2023/05/24 10:37:58;;;;;;;;;2.80;2.20;;;;;40.90;12.29;101950.97;5078956;27;45501;-41
2023/05/24 10:40:24;;;;;;;;;4.00;1.00;;;;;40.49;11.25;101961.63;5077683;28;45436;-51
2023/05/24 10:42:50;;;;;;;;;4.20;0.80;;;;;40.10;11.45;101955.66;5079017;27;45370;-63
2023/05/24 10:45:22;;;;;;;;;2.00;2.00;;;;;39.72;12.53;101957.16;5078706;27;45376;-40
2023/05/24 10:47:47;;;;;;;;;5.60;2.00;;;;;39.46;11.94;101951.34;5078837;28;45453;-65
2023/05/24 10:50:20;;;;;;;;;3.25;2.50;;;;;39.41;12.08;101964.25;5079022;27;45360;-39
2023/05/24 10:52:48;;;;;;;;;2.40;2.40;;;;;38.66;12.41;101971.03;5078394;28;45882;-41
2023/05/24 10:55:14;;;;;;;;;3.00;1.20;;;;;37.50;12.80;101960.66;5078398;27;45332;-41
2023/05/24 10:57:40;;;;;;;;;3.20;2.60;;;;;36.14;13.03;101968.22;5078639;27;45323;-40
2023/05/24 11:00:24;;;;;;;;;2.60;2.60;;;;;34.04;14.07;101969.16;5078559;27;45448;-39
2023/05/24 11:03:00;;;;;;;;;1.00;0.80;;;;;31.98;15.40;101962.72;5078222;27;46346;-46
2023/05/24 11:05:32;;;;;;;;;2.40;2.40;;;;;30.61;17.01;101970.03;5076720;28;45333;-38
2023/05/24 11:07:58;;;;;;;;;1.40;1.40;;;;;29.24;18.03;101955.38;5078157;27;45387;-47
2023/05/24 11:10:30;;;;;;;;;3.60;1.60;;;;;28.16;18.60;101971.16;5078379;27;45468;-60
2023/05/24 11:13:00;;;;;;;;;2.40;2.00;;;;;27.25;19.68;101966.69;5077711;27;46546;-55
2023/05/24 11:15:26;;;;;;;;;2.60;2.40;;;;;26.42;20.32;101967.03;5078652;27;45359;-45
2023/05/24 11:18:12;;;;;;;;;2.50;2.50;;;;;25.70;21.84;101977.31;5078048;28;45340;-42
2023/05/24 11:20:40;;;;;;;;;1.80;1.80;;;;;25.25;22.09;101972.69;5078382;27;45415;-51
2023/05/24 11:23:08;;;;;;;;;1.80;1.80;;;;;24.91;22.94;101976.53;5077446;27;46373;-45